Aviation Digital Data Service (ADDS)

Output produced by METARs form (2328 UTC 18 August 2019)
found at http://www.aviationweather.gov/metar/data/
 
Forecast for: KBNA (NASHVILLE , TN, US)
Text: KBNA 182320Z 1900/1924 19005KT P6SM SCT060 SCT250
Forecast period: 0000 UTC 19 August 2019 to 0000 UTC 20 August 2019
Forecast type: FROM: standard forecast or significant change
Winds: from the S (190 degrees) at 6 MPH (5 knots; 2.6 m/s)
Visibility: 6 or more miles 10+ km)
Ceiling: at least 12,000 feet AGL
Clouds: scattered clouds at 6000 feet AGL
scattered clouds at 25000 feet AGL
Weather: no significant weather forecast for this period